Time;durP1;ratioP1;P1;durP2;ratioP2;P2;SDS_P1;SDS_P2;PMS_P1;PMS_P2;Temp;Humidity;BMP_temperature;BMP_pressure;BME280_temperature;BME280_humidity;BME280_pressure;Samples;Min_cycle;Max_cycle;Signal;HPM_P1;HPM_P2
2022/04/14 00:02:00;;;;;;;13.30;11.32;;;15.10;99.90;;;;;;4951580;28;20660;-79
2022/04/14 00:04:36;;;;;;;12.00;10.75;;;15.10;99.90;;;;;;4966242;28;20212;-79
2022/04/14 00:07:04;;;;;;;14.05;11.65;;;15.20;99.90;;;;;;4953661;28;20205;-79
2022/04/14 00:09:31;;;;;;;13.25;10.82;;;15.30;99.90;;;;;;4951079;28;20596;-78
2022/04/14 00:11:59;;;;;;;14.27;11.20;;;15.30;99.90;;;;;;4968489;28;20210;-78
2022/04/14 00:14:26;;;;;;;13.32;10.73;;;15.30;99.90;;;;;;4956273;28;20204;-79
2022/04/14 00:16:54;;;;;;;13.45;11.07;;;15.20;99.90;;;;;;4951946;28;20206;-79
2022/04/14 00:19:22;;;;;;;13.15;11.02;;;15.30;99.90;;;;;;4957154;28;20210;-79
2022/04/14 00:21:50;;;;;;;13.55;11.45;;;15.20;99.90;;;;;;4951301;29;20210;-79
2022/04/14 00:24:17;;;;;;;11.45;10.13;;;15.30;99.90;;;;;;4967601;28;20201;-79
2022/04/14 00:26:45;;;;;;;12.95;11.30;;;15.30;99.90;;;;;;4956789;28;20206;-79
2022/04/14 00:29:12;;;;;;;16.27;11.63;;;15.30;99.90;;;;;;4950618;28;20234;-78
2022/04/14 00:31:40;;;;;;;13.32;10.30;;;15.40;99.90;;;;;;4965336;28;20212;-79
2022/04/14 00:34:07;;;;;;;13.02;10.27;;;15.40;99.90;;;;;;4970969;28;20672;-79
2022/04/14 00:36:50;;;;;;;12.27;10.02;;;15.30;99.90;;;;;;4951290;28;20213;-79
2022/04/14 00:39:17;;;;;;;12.23;10.68;;;15.20;99.90;;;;;;4959209;28;20229;-78
2022/04/14 00:41:45;;;;;;;11.88;10.02;;;15.20;99.90;;;;;;4951531;29;20222;-79
2022/04/14 00:44:15;;;;;;;12.73;11.07;;;15.30;99.90;;;;;;4951488;29;20205;-79
2022/04/14 00:46:42;;;;;;;13.45;11.02;;;15.20;99.90;;;;;;4958331;28;20223;-79
2022/04/14 00:49:13;;;;;;;12.48;10.30;;;15.10;99.90;;;;;;4961528;28;20233;-79
2022/04/14 00:51:41;;;;;;;12.65;10.13;;;15.10;99.90;;;;;;4963797;28;20202;-79
2022/04/14 00:54:19;;;;;;;11.57;10.25;;;15.00;99.90;;;;;;4955205;29;20194;-79
2022/04/14 00:56:46;;;;;;;12.65;11.27;;;15.00;99.90;;;;;;4958844;28;20209;-79
2022/04/14 00:59:14;;;;;;;11.85;10.35;;;14.90;99.90;;;;;;4945205;29;20222;-79
2022/04/14 01:01:41;;;;;;;15.82;11.70;;;14.90;99.90;;;;;;4968198;28;20221;-79
2022/04/14 01:04:10;;;;;;;13.45;10.55;;;14.90;99.90;;;;;;4962151;28;20205;-79
2022/04/14 01:06:39;;;;;;;12.60;11.00;;;14.80;99.90;;;;;;4962001;28;20796;-79
2022/04/14 01:09:18;;;;;;;14.45;11.38;;;14.80;99.90;;;;;;4950543;28;20234;-79
2022/04/14 01:11:49;;;;;;;16.58;11.90;;;14.80;99.90;;;;;;4954248;29;20228;-80
2022/04/14 01:14:21;;;;;;;12.55;11.20;;;14.60;99.90;;;;;;4959344;28;20202;-79
2022/04/14 01:16:48;;;;;;;14.10;11.80;;;14.40;99.90;;;;;;4958574;28;20202;-79
2022/04/14 01:19:16;;;;;;;13.98;12.48;;;14.30;99.90;;;;;;4966412;28;20224;-79
2022/04/14 01:22:01;;;;;;;14.82;12.82;;;14.40;99.90;;;;;;4958016;28;20206;-79
2022/04/14 01:24:31;;;;;;;16.20;12.02;;;14.50;99.90;;;;;;4935143;29;20206;-79
2022/04/14 01:27:00;;;;;;;14.60;12.05;;;14.50;99.90;;;;;;4958388;28;20205;-80
2022/04/14 01:29:28;;;;;;;12.77;10.93;;;14.40;99.90;;;;;;4946922;29;20226;-79
2022/04/14 01:31:57;;;;;;;9.65;8.65;;;14.20;99.90;;;;;;4957328;28;20209;-79
2022/04/14 01:34:25;;;;;;;9.95;8.95;;;14.20;99.90;;;;;;4935669;29;20198;-79
2022/04/14 01:36:52;;;;;;;14.05;10.85;;;14.40;99.90;;;;;;4955168;28;20240;-79
2022/04/14 01:39:19;;;;;;;12.25;10.15;;;14.50;99.90;;;;;;4951471;28;20217;-79
2022/04/14 01:41:48;;;;;;;12.95;9.88;;;14.40;99.90;;;;;;4957647;28;20210;-79
2022/04/14 01:44:16;;;;;;;10.73;9.57;;;14.50;99.90;;;;;;4933967;29;20201;-79
2022/04/14 01:46:43;;;;;;;10.25;9.20;;;14.60;99.90;;;;;;4937790;29;20206;-79
2022/04/14 01:49:11;;;;;;;10.20;9.18;;;14.70;99.90;;;;;;4956176;28;20218;-79
2022/04/14 01:51:39;;;;;;;10.90;8.77;;;14.80;99.90;;;;;;4954672;28;20209;-79
2022/04/14 01:54:07;;;;;;;10.32;9.23;;;14.80;99.90;;;;;;4934992;29;20661;-79
2022/04/14 01:56:34;;;;;;;9.10;8.20;;;14.80;99.90;;;;;;4951895;28;20209;-79
2022/04/14 01:59:03;;;;;;;11.45;8.75;;;14.80;99.90;;;;;;4954934;28;20230;-79
2022/04/14 02:01:30;;;;;;;9.25;8.35;;;14.80;99.90;;;;;;4955570;28;20198;-79
2022/04/14 02:03:58;;;;;;;11.45;7.90;;;14.90;99.90;;;;;;4962323;28;20206;-79
2022/04/14 02:06:25;;;;;;;10.48;8.85;;;15.00;99.90;;;;;;4934399;29;20205;-79
2022/04/14 02:08:53;;;;;;;11.13;8.95;;;15.00;99.90;;;;;;4962496;28;20590;-79
2022/04/14 02:11:20;;;;;;;9.82;8.80;;;14.90;99.90;;;;;;4941068;29;20209;-79
2022/04/14 02:13:48;;;;;;;9.05;8.10;;;14.90;99.90;;;;;;4941465;29;20206;-80
2022/04/14 02:16:16;;;;;;;10.00;9.00;;;14.80;99.90;;;;;;4936421;29;20198;-79
2022/04/14 02:18:44;;;;;;;11.57;10.15;;;14.80;99.90;;;;;;4933273;29;20585;-80
2022/04/14 02:21:11;;;;;;;11.52;9.52;;;14.80;99.90;;;;;;4955995;28;20202;-79
2022/04/14 02:23:39;;;;;;;10.60;9.50;;;14.60;99.90;;;;;;4940727;29;20202;-78
2022/04/14 02:26:06;;;;;;;11.00;9.27;;;14.70;99.90;;;;;;4960057;28;20677;-79
2022/04/14 02:28:33;;;;;;;11.07;8.85;;;14.80;99.90;;;;;;4952752;28;20226;-79
2022/04/14 02:31:01;;;;;;;11.88;9.40;;;14.90;99.90;;;;;;4957772;28;20201;-79
2022/04/14 02:33:29;;;;;;;10.30;9.30;;;14.90;99.90;;;;;;4931492;29;20964;-80
2022/04/14 02:35:57;;;;;;;12.48;9.63;;;14.90;99.90;;;;;;4948186;28;20207;-79
2022/04/14 02:38:24;;;;;;;14.02;10.55;;;14.80;99.90;;;;;;4948263;28;20221;-80
2022/04/14 02:40:52;;;;;;;14.00;11.23;;;14.50;99.90;;;;;;4956106;28;20202;-79
2022/04/14 02:43:21;;;;;;;14.02;11.13;;;14.10;99.90;;;;;;4935142;29;20195;-79
2022/04/14 02:45:48;;;;;;;15.13;11.57;;;13.90;99.90;;;;;;4954705;28;20213;-79
2022/04/14 02:48:17;;;;;;;13.82;11.80;;;13.90;99.90;;;;;;4930065;29;20226;-79
2022/04/14 02:50:46;;;;;;;13.05;11.32;;;14.00;99.90;;;;;;4944597;28;20226;-79
2022/04/14 02:53:13;;;;;;;13.95;11.13;;;14.00;99.90;;;;;;4968336;28;20574;-78
2022/04/14 02:55:42;;;;;;;14.05;11.50;;;14.10;99.90;;;;;;4950024;28;20210;-79
2022/04/14 02:58:09;;;;;;;12.25;10.68;;;14.40;99.90;;;;;;4959807;28;20222;-79
2022/04/14 03:00:38;;;;;;;14.70;12.43;;;14.60;99.90;;;;;;4945750;28;20229;-79
2022/04/14 03:03:05;;;;;;;13.13;11.50;;;14.60;99.90;;;;;;4962827;28;20210;-79
2022/04/14 03:05:33;;;;;;;13.15;11.07;;;14.60;99.90;;;;;;4963727;28;20213;-79
2022/04/14 03:08:01;;;;;;;13.38;11.82;;;14.60;99.90;;;;;;4936112;28;20230;-78
2022/04/14 03:10:43;;;;;;;14.30;12.07;;;14.60;99.90;;;;;;4951956;29;20212;-78
2022/04/14 03:13:10;;;;;;;17.83;13.00;;;14.40;99.90;;;;;;4973265;28;20212;-79
2022/04/14 03:15:38;;;;;;;14.00;12.35;;;14.20;99.90;;;;;;4959006;28;20205;-80
2022/04/14 03:18:06;;;;;;;14.65;12.57;;;14.20;99.90;;;;;;4954053;28;20230;-79
2022/04/14 03:20:34;;;;;;;14.82;12.90;;;14.40;99.90;;;;;;4966900;28;20198;-79
2022/04/14 03:23:03;;;;;;;14.80;12.48;;;14.60;99.90;;;;;;4955684;28;20202;-78
2022/04/14 03:25:30;;;;;;;13.90;11.25;;;14.50;99.90;;;;;;4958374;28;20202;-79
2022/04/14 03:27:58;;;;;;;16.58;12.80;;;14.50;99.90;;;;;;4962650;28;20321;-79
2022/04/14 03:30:25;;;;;;;14.63;12.18;;;14.50;99.90;;;;;;4944972;29;20214;-78
2022/04/14 03:32:53;;;;;;;15.00;13.40;;;14.50;99.90;;;;;;4953487;29;20209;-79
2022/04/14 03:35:20;;;;;;;15.80;13.63;;;14.60;99.90;;;;;;4955058;28;20221;-79
2022/04/14 03:37:47;;;;;;;17.42;13.98;;;14.40;99.90;;;;;;4950173;29;20653;-79
2022/04/14 03:40:16;;;;;;;17.00;14.07;;;14.50;99.90;;;;;;4939770;28;20203;-79
2022/04/14 03:42:43;;;;;;;16.52;14.43;;;14.50;99.90;;;;;;4938728;28;20203;-79
2022/04/14 03:45:11;;;;;;;18.38;14.85;;;14.30;99.90;;;;;;4940427;28;20213;-79
2022/04/14 03:47:38;;;;;;;18.40;14.90;;;14.00;99.90;;;;;;4964472;28;20197;-79
2022/04/14 03:50:07;;;;;;;20.73;16.98;;;13.90;99.90;;;;;;4955253;28;20218;-79
2022/04/14 03:52:34;;;;;;;19.38;16.20;;;13.90;99.90;;;;;;4938857;29;20269;-78
2022/04/14 03:55:01;;;;;;;18.58;15.93;;;13.90;99.90;;;;;;4953011;29;20558;-80
2022/04/14 03:57:33;;;;;;;20.17;17.65;;;14.00;99.90;;;;;;4940065;29;20202;-80
2022/04/14 04:00:03;;;;;;;22.35;16.13;;;14.00;99.90;;;;;;4948763;29;20209;-80
2022/04/14 04:02:32;;;;;;;20.15;16.52;;;14.00;99.90;;;;;;4950157;28;20199;-79
2022/04/14 04:04:59;;;;;;;22.33;17.98;;;13.90;99.90;;;;;;4963369;28;20206;-80
2022/04/14 04:07:27;;;;;;;20.17;16.90;;;14.00;99.90;;;;;;4959442;28;20210;-80
2022/04/14 04:09:54;;;;;;;19.17;16.70;;;14.10;99.90;;;;;;4937710;29;20226;-80
2022/04/14 04:12:21;;;;;;;17.80;15.07;;;14.30;99.90;;;;;;4953374;28;20202;-80
2022/04/14 04:14:50;;;;;;;18.83;16.73;;;14.40;99.90;;;;;;4945928;28;20202;-80
2022/04/14 04:17:18;;;;;;;16.23;14.52;;;14.40;99.90;;;;;;4936933;29;20198;-79
2022/04/14 04:19:46;;;;;;;15.80;13.98;;;14.30;99.90;;;;;;4951467;28;20224;-78
2022/04/14 04:22:16;;;;;;;15.18;13.20;;;14.10;99.90;;;;;;4944918;28;20206;-79
2022/04/14 04:24:44;;;;;;;16.30;14.25;;;14.20;99.90;;;;;;4954218;28;20205;-80
2022/04/14 04:27:11;;;;;;;18.27;15.02;;;14.20;99.90;;;;;;4956310;28;20205;-80
2022/04/14 04:29:38;;;;;;;21.38;16.90;;;14.20;99.90;;;;;;4957964;28;20235;-79
2022/04/14 04:32:08;;;;;;;17.70;15.05;;;14.20;99.90;;;;;;4960389;28;20218;-78
2022/04/14 04:34:38;;;;;;;19.48;16.10;;;14.40;99.90;;;;;;4949426;28;20691;-78
2022/04/14 04:37:06;;;;;;;21.60;16.63;;;14.40;99.90;;;;;;4964566;28;20228;-77
2022/04/14 04:39:33;;;;;;;20.77;18.42;;;14.50;99.90;;;;;;4956383;28;20230;-79
2022/04/14 04:42:01;;;;;;;17.65;15.15;;;14.50;99.90;;;;;;4953626;29;20684;-79
2022/04/14 04:44:28;;;;;;;22.65;17.35;;;14.40;99.90;;;;;;4958713;28;20203;-78
2022/04/14 04:46:56;;;;;;;17.67;15.82;;;14.20;99.90;;;;;;4961158;28;20561;-77
2022/04/14 04:49:25;;;;;;;19.42;16.67;;;14.10;99.90;;;;;;4956429;28;20333;-79
2022/04/14 04:51:52;;;;;;;21.65;17.10;;;14.10;99.90;;;;;;4952071;29;20592;-77
2022/04/14 04:54:19;;;;;;;19.35;16.58;;;14.20;99.90;;;;;;4952125;28;20202;-78
2022/04/14 04:56:47;;;;;;;19.00;17.02;;;14.20;99.90;;;;;;4947635;29;20205;-78
2022/04/14 04:59:14;;;;;;;24.38;19.73;;;14.00;99.90;;;;;;4960112;28;20226;-77
2022/04/14 05:01:41;;;;;;;25.25;19.15;;;14.00;99.90;;;;;;4959073;28;20190;-78
2022/04/14 05:04:11;;;;;;;23.35;19.30;;;13.70;99.90;;;;;;4956049;28;20198;-78
2022/04/14 05:06:40;;;;;;;24.30;19.48;;;13.70;99.90;;;;;;4964033;28;20202;-78
2022/04/14 05:09:07;;;;;;;23.90;20.65;;;13.80;99.90;;;;;;4940649;28;20238;-79
2022/04/14 05:11:35;;;;;;;25.30;20.63;;;14.00;99.90;;;;;;4946185;29;20222;-78
2022/04/14 05:14:03;;;;;;;23.65;19.98;;;14.10;99.90;;;;;;4957621;28;20211;-78
2022/04/14 05:16:30;;;;;;;29.25;22.38;;;14.10;99.90;;;;;;4950036;28;20206;-78
2022/04/14 05:18:57;;;;;;;28.60;22.80;;;13.80;99.90;;;;;;4936932;28;20230;-78
2022/04/14 05:21:25;;;;;;;28.15;23.95;;;13.70;99.90;;;;;;4954126;28;20211;-78
2022/04/14 05:23:54;;;;;;;30.08;24.58;;;13.50;99.90;;;;;;4952593;28;20213;-77
2022/04/14 05:26:21;;;;;;;30.95;23.40;;;13.40;99.90;;;;;;4953490;29;20206;-77
2022/04/14 05:28:51;;;;;;;28.83;24.10;;;13.60;99.90;;;;;;4952045;28;20222;-79
2022/04/14 05:31:20;;;;;;;32.08;24.05;;;13.70;99.90;;;;;;4953915;28;20223;-79
2022/04/14 05:33:48;;;;;;;29.17;23.02;;;13.70;99.90;;;;;;4945368;29;20197;-79
2022/04/14 05:36:15;;;;;;;27.88;22.70;;;13.70;99.90;;;;;;4953509;28;20203;-79
2022/04/14 05:38:43;;;;;;;27.75;23.23;;;13.80;99.90;;;;;;4951546;28;20241;-78
2022/04/14 05:41:12;;;;;;;28.00;21.85;;;13.90;99.90;;;;;;4938699;29;20201;-78
2022/04/14 05:43:39;;;;;;;25.98;21.88;;;14.00;99.90;;;;;;4948208;28;20202;-76
2022/04/14 05:46:07;;;;;;;26.23;20.73;;;14.10;99.90;;;;;;4947693;28;20284;-76
2022/04/14 05:48:34;;;;;;;25.70;21.88;;;14.20;99.90;;;;;;4947282;28;20218;-76
2022/04/14 05:51:02;;;;;;;26.95;22.02;;;14.20;99.90;;;;;;4947387;28;20222;-78
2022/04/14 05:53:30;;;;;;;23.90;20.63;;;14.30;99.90;;;;;;4940838;29;20649;-78
2022/04/14 05:55:58;;;;;;;27.10;21.85;;;14.30;99.90;;;;;;4937413;29;20204;-77
2022/04/14 05:58:27;;;;;;;26.95;21.35;;;14.30;99.90;;;;;;4947708;28;20751;-78
2022/04/14 06:00:55;;;;;;;28.65;22.67;;;14.30;99.90;;;;;;4946626;29;20206;-78
2022/04/14 06:03:24;;;;;;;27.65;22.55;;;14.30;99.90;;;;;;4945413;28;20211;-77
2022/04/14 06:05:51;;;;;;;28.88;22.90;;;14.30;99.90;;;;;;4953015;28;20211;-78
2022/04/14 06:08:19;;;;;;;26.20;21.20;;;14.40;99.90;;;;;;4951181;28;20249;-77
2022/04/14 06:10:46;;;;;;;26.40;21.73;;;14.40;99.90;;;;;;4950516;28;20265;-78
2022/04/14 06:13:14;;;;;;;28.67;22.92;;;14.40;99.90;;;;;;4953801;28;20246;-78
2022/04/14 06:15:45;;;;;;;26.63;23.08;;;14.40;99.90;;;;;;4948210;28;20669;-78
2022/04/14 06:18:13;;;;;;;32.50;24.75;;;14.30;99.90;;;;;;4954296;28;20240;-78
2022/04/14 06:20:40;;;;;;;29.00;25.30;;;14.20;99.90;;;;;;4959783;28;20205;-78
2022/04/14 06:23:08;;;;;;;35.50;27.83;;;14.10;99.90;;;;;;4946866;28;20280;-77
2022/04/14 06:25:36;;;;;;;35.05;28.17;;;13.90;99.90;;;;;;4953276;28;20206;-77
2022/04/14 06:28:03;;;;;;;38.63;30.95;;;13.90;99.90;;;;;;4949342;28;20230;-78
2022/04/14 06:30:31;;;;;;;36.78;29.10;;;13.70;99.90;;;;;;4955192;28;20201;-77
2022/04/14 06:33:02;;;;;;;36.25;26.67;;;13.80;99.90;;;;;;4956417;28;20214;-77
2022/04/14 06:35:30;;;;;;;40.38;28.92;;;13.90;99.90;;;;;;4960815;28;20198;-77
2022/04/14 06:37:58;;;;;;;37.47;28.23;;;13.80;99.90;;;;;;4952894;28;20226;-77
2022/04/14 06:40:29;;;;;;;38.22;27.42;;;13.90;99.90;;;;;;4953634;28;20286;-77
2022/04/14 06:43:00;;;;;;;37.47;28.92;;;13.80;99.90;;;;;;4953966;28;20214;-78
2022/04/14 06:45:27;;;;;;;39.60;27.65;;;13.70;99.90;;;;;;4936725;29;20194;-77
2022/04/14 06:47:55;;;;;;;38.20;29.83;;;13.80;99.90;;;;;;4951748;28;20238;-78
2022/04/14 06:50:24;;;;;;;40.85;30.38;;;13.90;99.90;;;;;;4966306;28;20649;-78
2022/04/14 06:52:52;;;;;;;39.30;28.58;;;14.00;99.90;;;;;;4939884;29;20229;-78
2022/04/14 06:55:21;;;;;;;35.00;27.80;;;14.20;99.90;;;;;;4945937;28;20572;-78
2022/04/14 06:57:49;;;;;;;41.65;30.63;;;14.10;99.90;;;;;;4948360;28;20214;-78
2022/04/14 07:00:18;;;;;;;41.35;29.65;;;13.90;99.90;;;;;;4951745;28;20202;-78
2022/04/14 07:02:46;;;;;;;40.67;30.95;;;14.00;99.90;;;;;;4967474;28;20198;-78
2022/04/14 07:05:14;;;;;;;50.28;33.92;;;14.00;99.90;;;;;;4942039;29;20199;-76
2022/04/14 07:07:43;;;;;;;50.17;34.38;;;13.80;99.90;;;;;;4946403;28;20205;-77
2022/04/14 07:10:13;;;;;;;53.60;37.95;;;13.90;99.90;;;;;;4959733;28;20564;-77
2022/04/14 07:12:43;;;;;;;58.45;38.90;;;13.80;99.90;;;;;;4950646;28;20206;-77
2022/04/14 07:15:12;;;;;;;52.58;36.17;;;13.80;99.90;;;;;;4939014;29;20214;-77
2022/04/14 07:17:40;;;;;;;58.15;38.22;;;14.00;99.90;;;;;;4963297;28;20201;-77
2022/04/14 07:20:09;;;;;;;55.15;36.00;;;13.90;99.90;;;;;;4950516;29;20201;-77
2022/04/14 07:22:45;;;;;;;53.85;36.00;;;14.10;99.90;;;;;;4957090;28;20219;-77
2022/04/14 07:25:13;;;;;;;50.92;36.47;;;14.00;99.90;;;;;;4956500;28;20198;-76
2022/04/14 07:27:41;;;;;;;52.75;37.45;;;14.20;99.90;;;;;;4942197;28;20209;-77
2022/04/14 07:30:09;;;;;;;55.88;38.78;;;14.10;99.90;;;;;;4973724;28;20197;-78
2022/04/14 07:32:38;;;;;;;54.40;37.67;;;14.00;99.90;;;;;;4957098;28;20314;-77
2022/04/14 07:35:06;;;;;;;51.85;36.53;;;14.00;99.90;;;;;;4953575;28;20217;-78
2022/04/14 07:37:37;;;;;;;54.28;37.90;;;14.00;99.90;;;;;;4960773;28;20214;-78
2022/04/14 07:40:07;;;;;;;57.35;37.22;;;14.10;99.90;;;;;;4960440;28;20217;-78
2022/04/14 07:42:36;;;;;;;55.60;38.50;;;14.10;99.90;;;;;;4943260;29;20213;-78
2022/04/14 07:45:04;;;;;;;56.42;38.92;;;14.00;99.90;;;;;;4969517;28;20202;-78
2022/04/14 07:47:32;;;;;;;54.47;38.30;;;14.20;99.90;;;;;;4943602;29;20206;-78
2022/04/14 07:49:59;;;;;;;57.20;38.50;;;14.20;99.90;;;;;;4963063;28;20692;-78
2022/04/14 07:52:26;;;;;;;59.58;38.05;;;14.10;99.90;;;;;;4934355;29;20218;-78
2022/04/14 07:54:54;;;;;;;50.70;36.42;;;14.00;99.90;;;;;;4953801;28;20696;-78
2022/04/14 07:57:23;;;;;;;53.50;36.35;;;14.10;99.90;;;;;;4938880;29;20669;-78
2022/04/14 07:59:50;;;;;;;57.55;38.05;;;14.00;99.90;;;;;;4951734;29;20226;-77
2022/04/14 08:02:19;;;;;;;51.38;35.85;;;13.90;99.90;;;;;;4953945;28;20198;-78
2022/04/14 08:04:47;;;;;;;52.70;35.30;;;14.20;99.90;;;;;;4961086;28;20202;-79
2022/04/14 08:07:14;;;;;;;57.28;37.28;;;14.30;99.90;;;;;;4957139;28;20198;-78
2022/04/14 08:09:41;;;;;;;56.05;38.97;;;14.30;99.90;;;;;;4959902;28;20233;-79
2022/04/14 08:12:13;;;;;;;54.42;38.25;;;14.30;99.90;;;;;;4952289;28;20319;-79
2022/04/14 08:14:43;;;;;;;55.33;36.97;;;14.70;99.90;;;;;;4959488;28;20206;-79
2022/04/14 08:17:10;;;;;;;53.25;37.83;;;14.70;99.90;;;;;;4964091;28;20625;-78
2022/04/14 08:19:40;;;;;;;57.90;39.60;;;14.40;99.90;;;;;;4965500;28;20222;-78
2022/04/14 08:22:13;;;;;;;56.90;40.72;;;14.40;99.90;;;;;;4938953;29;20194;-78
2022/04/14 08:24:41;;;;;;;57.97;39.55;;;14.40;99.90;;;;;;4961970;28;20218;-78
2022/04/14 08:27:08;;;;;;;59.65;41.08;;;14.60;99.90;;;;;;4941240;29;20213;-77
2022/04/14 08:29:36;;;;;;;61.63;39.78;;;14.70;99.90;;;;;;4960760;28;20218;-78
2022/04/14 08:32:07;;;;;;;63.70;42.03;;;14.70;99.90;;;;;;4943145;29;20302;-78
2022/04/14 08:34:35;;;;;;;68.53;44.20;;;14.60;99.90;;;;;;4955704;28;20696;-78
2022/04/14 08:37:02;;;;;;;68.65;44.92;;;14.80;99.90;;;;;;4969517;28;20202;-78
2022/04/14 08:39:30;;;;;;;67.18;45.00;;;14.90;99.90;;;;;;4950648;28;20238;-78
2022/04/14 08:42:09;;;;;;;60.20;43.15;;;15.20;99.90;;;;;;4959315;28;20199;-78
2022/04/14 08:44:41;;;;;;;60.45;42.03;;;15.40;99.90;;;;;;4936077;28;20213;-76
2022/04/14 08:47:10;;;;;;;62.10;43.80;;;15.50;99.90;;;;;;4947178;29;20210;-75
2022/04/14 08:49:38;;;;;;;60.53;43.58;;;15.70;99.90;;;;;;4937072;29;20665;-78
2022/04/14 08:52:06;;;;;;;57.95;41.50;;;15.70;99.90;;;;;;4945350;28;20700;-78
2022/04/14 08:54:35;;;;;;;60.28;43.50;;;15.70;99.90;;;;;;4947281;28;20202;-78
2022/04/14 08:57:05;;;;;;;59.05;42.03;;;15.80;99.90;;;;;;4949935;28;20198;-78
2022/04/14 08:59:33;;;;;;;56.47;40.83;;;15.90;99.90;;;;;;4949570;28;20223;-78
2022/04/14 09:02:03;;;;;;;56.47;41.97;;;15.90;99.90;;;;;;4960065;28;20664;-78
2022/04/14 09:04:33;;;;;;;50.78;37.28;;;15.90;99.90;;;;;;4954581;28;20198;-78
2022/04/14 09:07:00;;;;;;;42.83;32.90;;;16.10;99.90;;;;;;4949049;28;20203;-79
2022/04/14 09:09:29;;;;;;;45.92;34.03;;;16.10;99.90;;;;;;4952028;28;20229;-78
2022/04/14 09:11:56;;;;;;;44.90;35.05;;;16.10;99.90;;;;;;4949366;28;20206;-79
2022/04/14 09:14:27;;;;;;;44.97;36.97;;;16.10;99.90;;;;;;4937104;29;20205;-78
2022/04/14 09:16:55;;;;;;;48.75;37.25;;;16.10;99.90;;;;;;4936018;29;20563;-78
2022/04/14 09:19:26;;;;;;;47.30;38.05;;;16.10;99.90;;;;;;4949227;28;20226;-78
2022/04/14 09:22:02;;;;;;;41.03;33.35;;;16.20;99.90;;;;;;4951969;28;20654;-78
2022/04/14 09:24:42;;;;;;;45.15;34.85;;;16.30;99.90;;;;;;4930522;29;20202;-78
2022/04/14 09:27:22;;;;;;;40.90;30.25;;;16.30;99.90;;;;;;4938128;29;20517;-78
2022/04/14 09:29:50;;;;;;;38.65;32.63;;;16.40;99.90;;;;;;4945485;28;20226;-79
2022/04/14 09:32:30;;;;;;;45.20;34.85;;;16.60;99.90;;;;;;4925712;29;20229;-79
2022/04/14 09:34:58;;;;;;;42.22;33.92;;;16.40;99.90;;;;;;4948645;28;20213;-78
2022/04/14 09:37:31;;;;;;;39.35;31.30;;;16.60;99.90;;;;;;4960143;28;20210;-79
2022/04/14 09:40:01;;;;;;;33.20;27.88;;;16.70;99.90;;;;;;4932243;29;20557;-78
2022/04/14 09:42:30;;;;;;;31.33;25.77;;;16.70;99.90;;;;;;4949083;28;20199;-79
2022/04/14 09:45:20;;;;;;;35.70;27.92;;;16.70;99.90;;;;;;4927854;29;20206;-79
2022/04/14 09:47:48;;;;;;;31.85;26.13;;;16.90;99.90;;;;;;4945436;28;20207;-78
2022/04/14 09:50:27;;;;;;;31.08;25.23;;;16.70;99.90;;;;;;4935647;29;20201;-77
2022/04/14 09:53:02;;;;;;;37.35;28.48;;;16.80;99.90;;;;;;4941511;28;20555;-77
2022/04/14 09:55:30;;;;;;;32.80;28.30;;;16.90;99.90;;;;;;4947383;28;20202;-78
2022/04/14 09:58:15;;;;;;;35.88;28.27;;;16.90;99.90;;;;;;4941649;28;20704;-77
2022/04/14 10:00:44;;;;;;;30.83;26.55;;;17.00;99.90;;;;;;4946185;28;20198;-77
2022/04/14 10:03:17;;;;;;;35.45;30.45;;;17.00;99.90;;;;;;4946469;28;20194;-77
2022/04/14 10:05:46;;;;;;;38.63;31.13;;;17.00;99.90;;;;;;4943620;28;20673;-76
2022/04/14 10:08:15;;;;;;;38.22;31.05;;;17.30;99.90;;;;;;4947586;28;20715;-76
2022/04/14 10:10:47;;;;;;;35.88;30.38;;;17.30;99.90;;;;;;4944232;29;20205;-76
2022/04/14 10:13:16;;;;;;;39.35;32.05;;;17.40;99.90;;;;;;4950511;28;20221;-76
2022/04/14 10:15:48;;;;;;;37.22;31.00;;;17.30;99.90;;;;;;4946821;29;20217;-76
2022/04/14 10:18:18;;;;;;;40.35;33.47;;;17.50;99.90;;;;;;4946670;28;20230;-76
2022/04/14 10:20:47;;;;;;;36.13;31.17;;;17.50;99.90;;;;;;4931592;29;20217;-76
2022/04/14 10:23:17;;;;;;;37.53;32.53;;;17.40;99.90;;;;;;4947859;29;20248;-76
2022/04/14 10:25:44;;;;;;;35.00;31.20;;;17.50;99.90;;;;;;4947896;29;20209;-77
2022/04/14 10:28:19;;;;;;;39.55;33.30;;;17.80;99.90;;;;;;4949636;28;20218;-77
2022/04/14 10:30:49;;;;;;;36.20;32.22;;;18.00;99.90;;;;;;4947149;28;20209;-77
2022/04/14 10:33:18;;;;;;;36.45;31.52;;;17.80;99.90;;;;;;4944413;28;20213;-77
2022/04/14 10:35:46;;;;;;;29.38;26.13;;;17.60;99.90;;;;;;4962947;28;20556;-77
2022/04/14 10:38:19;;;;;;;29.05;25.88;;;17.60;99.90;;;;;;4951630;28;20217;-77
2022/04/14 10:40:50;;;;;;;30.45;27.17;;;17.50;99.90;;;;;;4944921;29;20554;-80
2022/04/14 10:43:21;;;;;;;33.65;28.95;;;17.50;99.90;;;;;;4944307;28;20562;-80
2022/04/14 10:45:58;;;;;;;33.00;29.08;;;17.50;99.90;;;;;;4945606;28;20214;-81
2022/04/14 10:48:34;;;;;;;33.75;30.08;;;17.70;99.90;;;;;;4930241;29;20221;-81
2022/04/14 10:51:27;;;;;;;30.65;27.33;;;17.70;99.90;;;;;;4951200;28;20664;-80
2022/04/14 10:54:01;;;;;;;31.27;27.25;;;17.70;99.90;;;;;;4951070;28;20218;-81
2022/04/14 10:56:44;;;;;;;26.42;22.92;;;17.90;99.90;;;;;;4928727;29;20198;-79
2022/04/14 10:59:12;;;;;;;22.27;19.98;;;18.10;99.80;;;;;;4943659;28;20236;-80
2022/04/14 11:01:57;;;;;;;20.92;18.67;;;18.30;99.00;;;;;;4942931;28;20207;-81
2022/04/14 11:04:36;;;;;;;16.77;15.07;;;18.30;98.00;;;;;;4944709;28;20213;-81
2022/04/14 11:07:12;;;;;;;17.92;15.82;;;18.50;96.80;;;;;;4946706;28;20209;-82
2022/04/14 11:09:52;;;;;;;22.77;18.95;;;18.70;95.90;;;;;;4945642;28;20234;-80
2022/04/14 11:12:21;;;;;;;19.33;17.33;;;19.00;96.90;;;;;;4954664;28;20202;-80
2022/04/14 11:14:53;;;;;;;16.73;15.02;;;19.10;95.70;;;;;;4932455;28;20685;-80
2022/04/14 11:17:48;;;;;;;18.23;16.20;;;19.00;95.20;;;;;;4925365;29;20209;-80
2022/04/14 11:20:17;;;;;;;8.57;7.78;;;19.10;95.40;;;;;;4948135;28;20213;-82
2022/04/14 11:23:04;;;;;;;9.35;8.25;;;19.10;92.20;;;;;;4951598;28;20662;-80
2022/04/14 11:25:47;;;;;;;11.52;10.43;;;18.90;92.60;;;;;;4925777;29;20218;-80
2022/04/14 11:28:34;;;;;;;15.98;12.48;;;18.90;93.40;;;;;;4944794;28;20222;-80
2022/04/14 11:31:03;;;;;;;15.90;12.85;;;18.80;93.70;;;;;;4932395;29;20569;-80
2022/04/14 11:33:36;;;;;;;12.55;11.25;;;19.00;94.60;;;;;;4943629;28;20222;-80
2022/04/14 11:36:12;;;;;;;14.13;11.45;;;18.90;94.10;;;;;;4957089;28;20202;-80
2022/04/14 11:38:57;;;;;;;11.35;10.23;;;18.90;93.70;;;;;;4949146;28;20222;-78
2022/04/14 11:41:51;;;;;;;11.52;9.60;;;19.00;93.50;;;;;;4932121;29;20194;-78
2022/04/14 11:44:28;;;;;;;10.80;8.60;;;19.40;93.70;;;;;;4944567;28;20190;-79
2022/04/14 11:46:58;;;;;;;7.00;5.70;;;19.60;93.00;;;;;;4934518;29;20210;-82
2022/04/14 11:49:27;;;;;;;7.63;6.28;;;19.10;92.30;;;;;;4929588;29;20226;-78
2022/04/14 11:51:57;;;;;;;9.65;6.85;;;18.80;92.40;;;;;;4948735;28;20715;-79
2022/04/14 11:54:35;;;;;;;8.35;7.55;;;18.60;93.10;;;;;;4944714;28;20209;-78
2022/04/14 11:57:07;;;;;;;8.23;6.13;;;18.40;93.70;;;;;;4948828;28;20222;-79
2022/04/14 11:59:36;;;;;;;5.88;5.20;;;18.60;93.50;;;;;;4950005;28;20234;-81
2022/04/14 12:02:07;;;;;;;6.93;5.45;;;18.90;92.60;;;;;;4946134;28;20199;-78
2022/04/14 12:04:36;;;;;;;5.28;4.72;;;19.30;91.40;;;;;;4950604;28;20199;-79
2022/04/14 12:07:04;;;;;;;6.05;5.38;;;19.30;91.90;;;;;;4952493;28;20569;-78
2022/04/14 12:09:32;;;;;;;6.70;5.32;;;18.90;91.90;;;;;;4936428;29;20241;-78
2022/04/14 12:12:16;;;;;;;6.28;5.53;;;18.50;92.50;;;;;;4932227;29;20190;-78
2022/04/14 12:14:45;;;;;;;7.43;6.38;;;18.60;93.10;;;;;;4931026;29;20209;-84
2022/04/14 12:17:13;;;;;;;7.63;6.15;;;18.90;92.70;;;;;;4944834;28;20202;-80
2022/04/14 12:19:43;;;;;;;7.03;6.30;;;19.00;92.30;;;;;;4958168;28;20237;-79
2022/04/14 12:22:11;;;;;;;6.90;6.30;;;18.90;92.30;;;;;;4938903;29;20206;-77
2022/04/14 12:24:39;;;;;;;6.90;5.60;;;18.60;92.40;;;;;;4959482;28;20194;-78
2022/04/14 12:27:07;;;;;;;5.53;4.80;;;18.60;92.10;;;;;;4958012;28;20206;-77
2022/04/14 12:29:42;;;;;;;6.80;5.18;;;18.70;93.00;;;;;;4940149;28;20225;-77
2022/04/14 12:32:11;;;;;;;6.50;5.03;;;18.50;93.10;;;;;;4945161;28;20209;-77
2022/04/14 12:34:42;;;;;;;6.53;5.80;;;18.50;93.20;;;;;;4956821;28;20218;-77
2022/04/14 12:37:13;;;;;;;6.97;4.95;;;18.40;92.80;;;;;;4956210;28;20290;-78
2022/04/14 12:39:55;;;;;;;6.10;5.50;;;18.30;92.80;;;;;;4932019;29;20244;-77
2022/04/14 12:42:25;;;;;;;6.20;5.22;;;18.50;92.50;;;;;;4951666;28;20661;-77
2022/04/14 12:44:54;;;;;;;5.22;4.72;;;18.60;92.90;;;;;;4952850;28;20202;-77